sensor_id;sensor_type;location;lat;lon;timestamp;temperature;humidity
11055;DHT22;5580;50.106;8.702;2022-12-07T00:01:41;6.30;99.90
11055;DHT22;5580;50.106;8.702;2022-12-07T00:04:10;6.30;99.90
11055;DHT22;5580;50.106;8.702;2022-12-07T00:06:41;6.30;99.90
11055;DHT22;5580;50.106;8.702;2022-12-07T00:09:11;6.20;99.90
11055;DHT22;5580;50.106;8.702;2022-12-07T00:11:37;6.20;99.90
11055;DHT22;5580;50.106;8.702;2022-12-07T00:14:05;6.20;99.90
11055;DHT22;5580;50.106;8.702;2022-12-07T00:16:33;6.20;99.90
11055;DHT22;5580;50.106;8.702;2022-12-07T00:18:59;6.20;99.90
11055;DHT22;5580;50.106;8.702;2022-12-07T00:21:31;6.10;99.90
11055;DHT22;5580;50.106;8.702;2022-12-07T00:23:57;6.10;99.90
11055;DHT22;5580;50.106;8.702;2022-12-07T00:26:29;6.00;99.90
11055;DHT22;5580;50.106;8.702;2022-12-07T00:28:57;6.10;99.90
11055;DHT22;5580;50.106;8.702;2022-12-07T00:31:26;6.10;99.90
11055;DHT22;5580;50.106;8.702;2022-12-07T00:33:52;6.10;99.90
11055;DHT22;5580;50.106;8.702;2022-12-07T00:36:20;6.10;99.90
11055;DHT22;5580;50.106;8.702;2022-12-07T00:38:46;6.10;99.90
11055;DHT22;5580;50.106;8.702;2022-12-07T00:41:17;6.10;99.90
11055;DHT22;5580;50.106;8.702;2022-12-07T00:43:44;6.10;99.90
11055;DHT22;5580;50.106;8.702;2022-12-07T00:46:11;6.10;99.90
11055;DHT22;5580;50.106;8.702;2022-12-07T00:48:37;6.10;99.90
11055;DHT22;5580;50.106;8.702;2022-12-07T00:51:03;6.10;99.90
11055;DHT22;5580;50.106;8.702;2022-12-07T00:53:29;6.10;99.90
11055;DHT22;5580;50.106;8.702;2022-12-07T00:55:55;6.10;99.90
11055;DHT22;5580;50.106;8.702;2022-12-07T00:58:22;6.10;99.90
11055;DHT22;5580;50.106;8.702;2022-12-07T01:00:47;6.00;99.90
11055;DHT22;5580;50.106;8.702;2022-12-07T01:03:14;5.90;99.90
11055;DHT22;5580;50.106;8.702;2022-12-07T01:05:48;5.90;99.90
11055;DHT22;5580;50.106;8.702;2022-12-07T01:08:13;5.90;99.90
11055;DHT22;5580;50.106;8.702;2022-12-07T01:10:39;5.90;99.90
11055;DHT22;5580;50.106;8.702;2022-12-07T01:13:04;5.90;99.90
11055;DHT22;5580;50.106;8.702;2022-12-07T01:15:30;5.90;99.90
11055;DHT22;5580;50.106;8.702;2022-12-07T01:17:55;5.80;99.90
11055;DHT22;5580;50.106;8.702;2022-12-07T01:20:21;5.80;99.90
11055;DHT22;5580;50.106;8.702;2022-12-07T01:22:47;5.80;99.90
11055;DHT22;5580;50.106;8.702;2022-12-07T01:25:12;5.80;99.90
11055;DHT22;5580;50.106;8.702;2022-12-07T01:27:38;5.80;99.90
11055;DHT22;5580;50.106;8.702;2022-12-07T01:30:06;5.80;99.90
11055;DHT22;5580;50.106;8.702;2022-12-07T01:32:32;5.80;99.90
11055;DHT22;5580;50.106;8.702;2022-12-07T01:34:58;5.80;99.90
11055;DHT22;5580;50.106;8.702;2022-12-07T01:37:23;5.70;99.90
11055;DHT22;5580;50.106;8.702;2022-12-07T01:39:50;5.70;99.90
11055;DHT22;5580;50.106;8.702;2022-12-07T01:42:18;5.70;99.90
11055;DHT22;5580;50.106;8.702;2022-12-07T01:47:46;5.70;99.90
11055;DHT22;5580;50.106;8.702;2022-12-07T01:50:12;5.70;99.90
11055;DHT22;5580;50.106;8.702;2022-12-07T01:52:39;5.70;99.90
11055;DHT22;5580;50.106;8.702;2022-12-07T01:55:08;5.80;99.90
11055;DHT22;5580;50.106;8.702;2022-12-07T01:57:38;5.80;99.90
11055;DHT22;5580;50.106;8.702;2022-12-07T02:00:06;5.80;99.90
11055;DHT22;5580;50.106;8.702;2022-12-07T02:02:39;5.80;99.90
11055;DHT22;5580;50.106;8.702;2022-12-07T02:05:07;5.70;99.90
11055;DHT22;5580;50.106;8.702;2022-12-07T02:07:34;5.70;99.90
11055;DHT22;5580;50.106;8.702;2022-12-07T02:10:16;5.70;99.90
11055;DHT22;5580;50.106;8.702;2022-12-07T02:12:54;5.70;99.90
11055;DHT22;5580;50.106;8.702;2022-12-07T02:15:22;5.70;99.90
11055;DHT22;5580;50.106;8.702;2022-12-07T02:18:07;5.70;99.90
11055;DHT22;5580;50.106;8.702;2022-12-07T02:26:23;5.70;99.90
11055;DHT22;5580;50.106;8.702;2022-12-07T02:29:16;5.70;99.90
11055;DHT22;5580;50.106;8.702;2022-12-07T02:31:50;5.70;99.90
11055;DHT22;5580;50.106;8.702;2022-12-07T02:34:24;5.60;99.90
11055;DHT22;5580;50.106;8.702;2022-12-07T02:37:05;5.60;99.90
11055;DHT22;5580;50.106;8.702;2022-12-07T02:42:15;5.60;99.90
11055;DHT22;5580;50.106;8.702;2022-12-07T02:44:42;5.60;99.90
11055;DHT22;5580;50.106;8.702;2022-12-07T02:47:12;5.60;99.90
11055;DHT22;5580;50.106;8.702;2022-12-07T02:49:39;5.60;99.90
11055;DHT22;5580;50.106;8.702;2022-12-07T02:52:05;5.60;99.90
11055;DHT22;5580;50.106;8.702;2022-12-07T02:54:31;5.60;99.90
11055;DHT22;5580;50.106;8.702;2022-12-07T03:10:50;5.60;99.90
11055;DHT22;5580;50.106;8.702;2022-12-07T03:13:30;5.60;99.90
11055;DHT22;5580;50.106;8.702;2022-12-07T03:18:31;5.50;99.90
11055;DHT22;5580;50.106;8.702;2022-12-07T03:21:02;5.50;99.90
11055;DHT22;5580;50.106;8.702;2022-12-07T03:23:31;5.50;99.90
11055;DHT22;5580;50.106;8.702;2022-12-07T03:26:00;5.50;99.90
11055;DHT22;5580;50.106;8.702;2022-12-07T03:28:31;5.50;99.90
11055;DHT22;5580;50.106;8.702;2022-12-07T03:31:11;5.50;99.90
11055;DHT22;5580;50.106;8.702;2022-12-07T03:33:52;5.50;99.90
11055;DHT22;5580;50.106;8.702;2022-12-07T03:36:26;5.50;99.90
11055;DHT22;5580;50.106;8.702;2022-12-07T03:39:00;5.50;99.90
11055;DHT22;5580;50.106;8.702;2022-12-07T03:41:32;5.60;99.90
11055;DHT22;5580;50.106;8.702;2022-12-07T03:43:59;5.60;99.90
11055;DHT22;5580;50.106;8.702;2022-12-07T03:46:34;5.60;99.90
11055;DHT22;5580;50.106;8.702;2022-12-07T03:49:27;5.60;99.90
11055;DHT22;5580;50.106;8.702;2022-12-07T03:52:22;5.60;99.90
11055;DHT22;5580;50.106;8.702;2022-12-07T03:55:15;5.60;99.90
11055;DHT22;5580;50.106;8.702;2022-12-07T03:57:43;5.60;99.90
11055;DHT22;5580;50.106;8.702;2022-12-07T04:00:11;5.60;99.90
11055;DHT22;5580;50.106;8.702;2022-12-07T04:02:37;5.60;99.90
11055;DHT22;5580;50.106;8.702;2022-12-07T04:05:03;5.70;99.90
11055;DHT22;5580;50.106;8.702;2022-12-07T04:07:28;5.60;99.90
11055;DHT22;5580;50.106;8.702;2022-12-07T04:09:54;5.60;99.90
11055;DHT22;5580;50.106;8.702;2022-12-07T04:12:23;5.60;99.90
11055;DHT22;5580;50.106;8.702;2022-12-07T04:14:48;5.60;99.90
11055;DHT22;5580;50.106;8.702;2022-12-07T04:17:14;5.70;99.90
11055;DHT22;5580;50.106;8.702;2022-12-07T04:19:40;5.60;99.90
11055;DHT22;5580;50.106;8.702;2022-12-07T04:22:06;5.60;99.90
11055;DHT22;5580;50.106;8.702;2022-12-07T04:24:32;5.60;99.90
11055;DHT22;5580;50.106;8.702;2022-12-07T04:26:58;5.60;99.90
11055;DHT22;5580;50.106;8.702;2022-12-07T04:29:24;5.60;99.90
11055;DHT22;5580;50.106;8.702;2022-12-07T04:31:50;5.60;99.90
11055;DHT22;5580;50.106;8.702;2022-12-07T04:34:16;5.70;99.90
11055;DHT22;5580;50.106;8.702;2022-12-07T04:36:43;5.60;99.90
11055;DHT22;5580;50.106;8.702;2022-12-07T04:39:24;5.70;99.90
11055;DHT22;5580;50.106;8.702;2022-12-07T04:41:50;5.60;99.90
11055;DHT22;5580;50.106;8.702;2022-12-07T04:44:17;5.60;99.90
11055;DHT22;5580;50.106;8.702;2022-12-07T04:46:43;5.60;99.90
11055;DHT22;5580;50.106;8.702;2022-12-07T04:49:09;5.60;99.90
11055;DHT22;5580;50.106;8.702;2022-12-07T04:51:35;5.60;99.90
11055;DHT22;5580;50.106;8.702;2022-12-07T04:54:00;5.60;99.90
11055;DHT22;5580;50.106;8.702;2022-12-07T04:56:26;5.50;99.90
11055;DHT22;5580;50.106;8.702;2022-12-07T04:58:53;5.60;99.90
11055;DHT22;5580;50.106;8.702;2022-12-07T05:01:19;5.60;99.90
11055;DHT22;5580;50.106;8.702;2022-12-07T05:03:45;5.60;99.90
11055;DHT22;5580;50.106;8.702;2022-12-07T05:06:11;5.60;99.90
11055;DHT22;5580;50.106;8.702;2022-12-07T05:08:37;5.50;99.90
11055;DHT22;5580;50.106;8.702;2022-12-07T05:11:05;5.50;99.90
11055;DHT22;5580;50.106;8.702;2022-12-07T05:13:32;5.50;99.90
11055;DHT22;5580;50.106;8.702;2022-12-07T05:15:58;5.50;99.90
11055;DHT22;5580;50.106;8.702;2022-12-07T05:18:24;5.50;99.90
11055;DHT22;5580;50.106;8.702;2022-12-07T05:20:50;5.50;99.90
11055;DHT22;5580;50.106;8.702;2022-12-07T05:23:16;5.50;99.90
11055;DHT22;5580;50.106;8.702;2022-12-07T05:25:42;5.60;99.90
11055;DHT22;5580;50.106;8.702;2022-12-07T05:28:11;5.60;99.90
11055;DHT22;5580;50.106;8.702;2022-12-07T05:30:36;5.60;99.90
11055;DHT22;5580;50.106;8.702;2022-12-07T05:33:02;5.60;99.90
11055;DHT22;5580;50.106;8.702;2022-12-07T05:35:28;5.60;99.90
11055;DHT22;5580;50.106;8.702;2022-12-07T05:37:55;5.70;99.90
11055;DHT22;5580;50.106;8.702;2022-12-07T05:40:21;5.70;99.90
11055;DHT22;5580;50.106;8.702;2022-12-07T05:42:46;5.70;99.90
11055;DHT22;5580;50.106;8.702;2022-12-07T05:45:12;5.70;99.90
11055;DHT22;5580;50.106;8.702;2022-12-07T05:47:37;5.70;99.90
11055;DHT22;5580;50.106;8.702;2022-12-07T05:50:04;5.70;99.90
11055;DHT22;5580;50.106;8.702;2022-12-07T05:52:30;5.70;99.90
11055;DHT22;5580;50.106;8.702;2022-12-07T05:54:56;5.80;99.90
11055;DHT22;5580;50.106;8.702;2022-12-07T05:57:21;5.80;99.90
11055;DHT22;5580;50.106;8.702;2022-12-07T05:59:47;5.80;99.90
11055;DHT22;5580;50.106;8.702;2022-12-07T06:02:15;5.70;99.90
11055;DHT22;5580;50.106;8.702;2022-12-07T06:04:43;5.70;99.90
11055;DHT22;5580;50.106;8.702;2022-12-07T06:07:10;5.70;99.90
11055;DHT22;5580;50.106;8.702;2022-12-07T06:09:37;5.70;99.90
11055;DHT22;5580;50.106;8.702;2022-12-07T06:12:03;5.70;99.90
11055;DHT22;5580;50.106;8.702;2022-12-07T06:14:48;5.70;99.90
11055;DHT22;5580;50.106;8.702;2022-12-07T06:17:14;5.80;99.90
11055;DHT22;5580;50.106;8.702;2022-12-07T06:19:39;5.70;99.90
11055;DHT22;5580;50.106;8.702;2022-12-07T06:22:05;5.80;99.90
11055;DHT22;5580;50.106;8.702;2022-12-07T06:24:32;5.80;99.90
11055;DHT22;5580;50.106;8.702;2022-12-07T06:26:58;5.80;99.90
11055;DHT22;5580;50.106;8.702;2022-12-07T06:29:24;5.70;99.90
11055;DHT22;5580;50.106;8.702;2022-12-07T06:31:50;5.80;99.90
11055;DHT22;5580;50.106;8.702;2022-12-07T06:34:18;5.80;99.90
11055;DHT22;5580;50.106;8.702;2022-12-07T06:36:43;5.80;99.90
11055;DHT22;5580;50.106;8.702;2022-12-07T06:39:10;5.70;99.90
11055;DHT22;5580;50.106;8.702;2022-12-07T06:41:39;5.70;99.90
11055;DHT22;5580;50.106;8.702;2022-12-07T06:44:06;5.70;99.90
11055;DHT22;5580;50.106;8.702;2022-12-07T06:46:32;5.70;99.90
11055;DHT22;5580;50.106;8.702;2022-12-07T06:48:57;5.70;99.90
11055;DHT22;5580;50.106;8.702;2022-12-07T06:51:23;5.70;99.90
11055;DHT22;5580;50.106;8.702;2022-12-07T06:53:49;5.70;99.90
11055;DHT22;5580;50.106;8.702;2022-12-07T06:56:15;5.70;99.90
11055;DHT22;5580;50.106;8.702;2022-12-07T06:58:40;5.80;99.90
11055;DHT22;5580;50.106;8.702;2022-12-07T07:01:10;5.80;99.90
11055;DHT22;5580;50.106;8.702;2022-12-07T07:03:36;5.80;99.90
11055;DHT22;5580;50.106;8.702;2022-12-07T07:06:01;5.80;99.90
11055;DHT22;5580;50.106;8.702;2022-12-07T07:08:27;5.80;99.90
11055;DHT22;5580;50.106;8.702;2022-12-07T07:10:52;5.80;99.90
11055;DHT22;5580;50.106;8.702;2022-12-07T07:13:18;5.80;99.90
11055;DHT22;5580;50.106;8.702;2022-12-07T07:15:44;5.80;99.90
11055;DHT22;5580;50.106;8.702;2022-12-07T07:18:09;5.80;99.90
11055;DHT22;5580;50.106;8.702;2022-12-07T07:20:35;5.80;99.90
11055;DHT22;5580;50.106;8.702;2022-12-07T07:23:01;5.80;99.90
11055;DHT22;5580;50.106;8.702;2022-12-07T07:25:27;5.80;99.90
11055;DHT22;5580;50.106;8.702;2022-12-07T07:27:52;5.80;99.90
11055;DHT22;5580;50.106;8.702;2022-12-07T07:30:18;5.80;99.90
11055;DHT22;5580;50.106;8.702;2022-12-07T07:32:43;5.80;99.90
11055;DHT22;5580;50.106;8.702;2022-12-07T07:35:09;5.80;99.90
11055;DHT22;5580;50.106;8.702;2022-12-07T07:37:35;5.90;99.90
11055;DHT22;5580;50.106;8.702;2022-12-07T07:40:00;5.80;99.90
11055;DHT22;5580;50.106;8.702;2022-12-07T07:42:26;5.80;99.90
11055;DHT22;5580;50.106;8.702;2022-12-07T07:44:51;5.70;99.90
11055;DHT22;5580;50.106;8.702;2022-12-07T07:47:17;5.70;99.90
11055;DHT22;5580;50.106;8.702;2022-12-07T07:49:42;5.70;99.90
11055;DHT22;5580;50.106;8.702;2022-12-07T07:52:08;5.70;99.90
11055;DHT22;5580;50.106;8.702;2022-12-07T07:54:34;5.70;99.90
11055;DHT22;5580;50.106;8.702;2022-12-07T07:56:59;5.70;99.90
11055;DHT22;5580;50.106;8.702;2022-12-07T07:59:25;5.70;99.90
11055;DHT22;5580;50.106;8.702;2022-12-07T08:01:50;5.70;99.90
11055;DHT22;5580;50.106;8.702;2022-12-07T08:04:16;5.70;99.90
11055;DHT22;5580;50.106;8.702;2022-12-07T08:06:42;5.70;99.90
11055;DHT22;5580;50.106;8.702;2022-12-07T08:09:08;5.80;99.90
11055;DHT22;5580;50.106;8.702;2022-12-07T08:11:34;5.80;99.90
11055;DHT22;5580;50.106;8.702;2022-12-07T08:14:01;5.80;99.90
11055;DHT22;5580;50.106;8.702;2022-12-07T08:16:27;5.80;99.90
11055;DHT22;5580;50.106;8.702;2022-12-07T08:18:52;5.80;99.90
11055;DHT22;5580;50.106;8.702;2022-12-07T08:21:18;5.80;99.90
11055;DHT22;5580;50.106;8.702;2022-12-07T08:23:43;5.90;99.90
11055;DHT22;5580;50.106;8.702;2022-12-07T08:26:11;5.90;99.90
11055;DHT22;5580;50.106;8.702;2022-12-07T08:28:38;5.80;99.90
11055;DHT22;5580;50.106;8.702;2022-12-07T08:31:12;5.80;99.90
11055;DHT22;5580;50.106;8.702;2022-12-07T08:33:39;5.90;99.90
11055;DHT22;5580;50.106;8.702;2022-12-07T08:36:08;5.80;99.90
11055;DHT22;5580;50.106;8.702;2022-12-07T08:38:35;5.80;99.90
11055;DHT22;5580;50.106;8.702;2022-12-07T08:41:02;5.80;99.90
11055;DHT22;5580;50.106;8.702;2022-12-07T08:43:28;5.90;99.90
11055;DHT22;5580;50.106;8.702;2022-12-07T08:48:41;5.90;99.90
11055;DHT22;5580;50.106;8.702;2022-12-07T08:51:08;5.90;99.90
11055;DHT22;5580;50.106;8.702;2022-12-07T08:53:35;5.90;99.90
11055;DHT22;5580;50.106;8.702;2022-12-07T08:56:02;5.90;99.90
11055;DHT22;5580;50.106;8.702;2022-12-07T08:58:28;5.80;99.90
11055;DHT22;5580;50.106;8.702;2022-12-07T09:00:54;5.80;99.90
11055;DHT22;5580;50.106;8.702;2022-12-07T09:03:20;5.80;99.90
11055;DHT22;5580;50.106;8.702;2022-12-07T09:05:45;5.90;99.90
11055;DHT22;5580;50.106;8.702;2022-12-07T09:08:11;5.90;99.90
11055;DHT22;5580;50.106;8.702;2022-12-07T09:10:37;5.90;99.90
11055;DHT22;5580;50.106;8.702;2022-12-07T09:13:02;5.90;99.90
11055;DHT22;5580;50.106;8.702;2022-12-07T09:15:29;5.90;99.90
11055;DHT22;5580;50.106;8.702;2022-12-07T09:17:54;6.00;99.90
11055;DHT22;5580;50.106;8.702;2022-12-07T09:20:21;6.00;99.90
11055;DHT22;5580;50.106;8.702;2022-12-07T09:22:46;6.00;99.90
11055;DHT22;5580;50.106;8.702;2022-12-07T09:25:12;6.00;99.90
11055;DHT22;5580;50.106;8.702;2022-12-07T09:27:37;6.00;99.90
11055;DHT22;5580;50.106;8.702;2022-12-07T09:30:04;6.10;99.90
11055;DHT22;5580;50.106;8.702;2022-12-07T09:32:30;6.10;99.90
11055;DHT22;5580;50.106;8.702;2022-12-07T09:34:55;6.10;99.90
11055;DHT22;5580;50.106;8.702;2022-12-07T09:37:21;6.20;99.90
11055;DHT22;5580;50.106;8.702;2022-12-07T09:39:47;6.30;99.90
11055;DHT22;5580;50.106;8.702;2022-12-07T09:44:50;6.30;99.90
11055;DHT22;5580;50.106;8.702;2022-12-07T09:47:16;6.40;99.90
11055;DHT22;5580;50.106;8.702;2022-12-07T09:49:42;6.40;99.90
11055;DHT22;5580;50.106;8.702;2022-12-07T09:54:36;6.40;99.90
11055;DHT22;5580;50.106;8.702;2022-12-07T09:57:02;6.40;99.90
11055;DHT22;5580;50.106;8.702;2022-12-07T09:59:29;6.40;99.90
11055;DHT22;5580;50.106;8.702;2022-12-07T10:01:55;6.50;99.90
11055;DHT22;5580;50.106;8.702;2022-12-07T10:04:23;6.50;99.90
11055;DHT22;5580;50.106;8.702;2022-12-07T10:06:49;6.40;99.90
11055;DHT22;5580;50.106;8.702;2022-12-07T10:09:20;6.50;99.90
11055;DHT22;5580;50.106;8.702;2022-12-07T10:14:31;6.60;99.90
11055;DHT22;5580;50.106;8.702;2022-12-07T10:16:58;6.60;99.90
11055;DHT22;5580;50.106;8.702;2022-12-07T10:19:26;6.60;99.90
11055;DHT22;5580;50.106;8.702;2022-12-07T10:22:04;6.70;99.90
11055;DHT22;5580;50.106;8.702;2022-12-07T10:24:31;6.80;99.90
11055;DHT22;5580;50.106;8.702;2022-12-07T10:26:57;6.80;99.90
11055;DHT22;5580;50.106;8.702;2022-12-07T10:29:37;6.90;99.90
11055;DHT22;5580;50.106;8.702;2022-12-07T10:32:29;7.00;99.90
11055;DHT22;5580;50.106;8.702;2022-12-07T10:35:24;7.10;99.90
11055;DHT22;5580;50.106;8.702;2022-12-07T10:37:51;7.10;99.90
11055;DHT22;5580;50.106;8.702;2022-12-07T10:40:27;7.10;99.90
11055;DHT22;5580;50.106;8.702;2022-12-07T10:45:28;7.20;99.90
11055;DHT22;5580;50.106;8.702;2022-12-07T10:48:11;7.10;99.90
11055;DHT22;5580;50.106;8.702;2022-12-07T10:54:07;7.10;99.90
11055;DHT22;5580;50.106;8.702;2022-12-07T11:01:57;7.20;99.90
11055;DHT22;5580;50.106;8.702;2022-12-07T11:10:13;7.20;99.90
11055;DHT22;5580;50.106;8.702;2022-12-07T11:12:54;7.20;99.90
11055;DHT22;5580;50.106;8.702;2022-12-07T11:24:01;7.20;99.90
11055;DHT22;5580;50.106;8.702;2022-12-07T11:26:50;7.40;99.90
11055;DHT22;5580;50.106;8.702;2022-12-07T11:32:14;7.40;99.90
11055;DHT22;5580;50.106;8.702;2022-12-07T11:35:08;7.40;99.90
11055;DHT22;5580;50.106;8.702;2022-12-07T11:37:37;7.40;99.90
11055;DHT22;5580;50.106;8.702;2022-12-07T11:40:27;7.40;99.90
11055;DHT22;5580;50.106;8.702;2022-12-07T11:43:27;7.40;99.90
11055;DHT22;5580;50.106;8.702;2022-12-07T11:46:11;7.40;99.90
11055;DHT22;5580;50.106;8.702;2022-12-07T11:48:45;7.40;99.90
11055;DHT22;5580;50.106;8.702;2022-12-07T11:51:12;7.40;99.90
11055;DHT22;5580;50.106;8.702;2022-12-07T11:53:43;7.50;99.90
11055;DHT22;5580;50.106;8.702;2022-12-07T11:56:19;7.50;99.90
11055;DHT22;5580;50.106;8.702;2022-12-07T12:04:00;7.60;99.90
11055;DHT22;5580;50.106;8.702;2022-12-07T12:06:26;7.60;99.90
11055;DHT22;5580;50.106;8.702;2022-12-07T12:08:56;7.60;99.90
11055;DHT22;5580;50.106;8.702;2022-12-07T12:20:20;7.60;99.90
11055;DHT22;5580;50.106;8.702;2022-12-07T12:25:34;7.80;99.90
11055;DHT22;5580;50.106;8.702;2022-12-07T12:28:00;7.80;99.90
11055;DHT22;5580;50.106;8.702;2022-12-07T12:33:26;7.70;99.90
11055;DHT22;5580;50.106;8.702;2022-12-07T12:46:59;7.60;99.90
11055;DHT22;5580;50.106;8.702;2022-12-07T12:52:01;7.70;99.90
11055;DHT22;5580;50.106;8.702;2022-12-07T12:54:32;7.70;99.90
11055;DHT22;5580;50.106;8.702;2022-12-07T12:57:19;7.70;99.90
11055;DHT22;5580;50.106;8.702;2022-12-07T13:02:58;7.80;99.90
11055;DHT22;5580;50.106;8.702;2022-12-07T13:05:26;7.80;99.90
11055;DHT22;5580;50.106;8.702;2022-12-07T13:08:36;7.70;99.90
11055;DHT22;5580;50.106;8.702;2022-12-07T13:11:32;7.80;99.90
11055;DHT22;5580;50.106;8.702;2022-12-07T13:17:03;7.90;99.90
11055;DHT22;5580;50.106;8.702;2022-12-07T13:25:07;7.90;99.90
11055;DHT22;5580;50.106;8.702;2022-12-07T13:27:35;7.90;99.90
11055;DHT22;5580;50.106;8.702;2022-12-07T13:30:14;7.90;99.90
11055;DHT22;5580;50.106;8.702;2022-12-07T13:32:40;7.90;99.90
11055;DHT22;5580;50.106;8.702;2022-12-07T13:35:32;8.00;99.90
11055;DHT22;5580;50.106;8.702;2022-12-07T13:38:01;8.00;99.90
11055;DHT22;5580;50.106;8.702;2022-12-07T13:40:27;7.90;99.90
11055;DHT22;5580;50.106;8.702;2022-12-07T13:43:03;7.90;99.90
11055;DHT22;5580;50.106;8.702;2022-12-07T13:45:31;7.90;99.90
11055;DHT22;5580;50.106;8.702;2022-12-07T13:48:32;7.80;99.90
11055;DHT22;5580;50.106;8.702;2022-12-07T13:51:00;7.70;99.90
11055;DHT22;5580;50.106;8.702;2022-12-07T13:53:27;7.70;99.90
11055;DHT22;5580;50.106;8.702;2022-12-07T13:56:00;7.70;99.90
11055;DHT22;5580;50.106;8.702;2022-12-07T13:58:27;7.70;99.90
11055;DHT22;5580;50.106;8.702;2022-12-07T14:00:55;7.70;99.90
11055;DHT22;5580;50.106;8.702;2022-12-07T14:03:26;7.60;99.90
11055;DHT22;5580;50.106;8.702;2022-12-07T14:08:42;7.70;99.90
11055;DHT22;5580;50.106;8.702;2022-12-07T14:11:14;7.70;99.90
11055;DHT22;5580;50.106;8.702;2022-12-07T14:13:58;7.80;99.90
11055;DHT22;5580;50.106;8.702;2022-12-07T14:18:56;7.80;99.90
11055;DHT22;5580;50.106;8.702;2022-12-07T14:21:25;7.80;99.90
11055;DHT22;5580;50.106;8.702;2022-12-07T14:26:37;7.80;99.90
11055;DHT22;5580;50.106;8.702;2022-12-07T14:29:22;7.80;99.90
11055;DHT22;5580;50.106;8.702;2022-12-07T14:31:54;7.80;99.90
11055;DHT22;5580;50.106;8.702;2022-12-07T14:34:21;7.80;99.90
11055;DHT22;5580;50.106;8.702;2022-12-07T14:36:47;7.80;99.90
11055;DHT22;5580;50.106;8.702;2022-12-07T14:39:12;7.80;99.90
11055;DHT22;5580;50.106;8.702;2022-12-07T14:41:38;7.80;99.90
11055;DHT22;5580;50.106;8.702;2022-12-07T14:44:17;7.70;99.90
11055;DHT22;5580;50.106;8.702;2022-12-07T14:46:42;7.70;99.90
11055;DHT22;5580;50.106;8.702;2022-12-07T14:49:08;7.70;99.90
11055;DHT22;5580;50.106;8.702;2022-12-07T14:51:37;7.70;99.90
11055;DHT22;5580;50.106;8.702;2022-12-07T14:54:05;7.70;99.90
11055;DHT22;5580;50.106;8.702;2022-12-07T14:56:31;7.70;99.90
11055;DHT22;5580;50.106;8.702;2022-12-07T14:58:56;7.70;99.90
11055;DHT22;5580;50.106;8.702;2022-12-07T15:01:22;7.60;99.90
11055;DHT22;5580;50.106;8.702;2022-12-07T15:03:48;7.60;99.90
11055;DHT22;5580;50.106;8.702;2022-12-07T15:06:15;7.50;99.90
11055;DHT22;5580;50.106;8.702;2022-12-07T15:08:41;7.40;99.90
11055;DHT22;5580;50.106;8.702;2022-12-07T15:11:14;7.30;99.90
11055;DHT22;5580;50.106;8.702;2022-12-07T15:13:40;7.20;99.90
11055;DHT22;5580;50.106;8.702;2022-12-07T15:16:24;7.20;99.90
11055;DHT22;5580;50.106;8.702;2022-12-07T15:18:49;7.10;99.90
11055;DHT22;5580;50.106;8.702;2022-12-07T15:21:15;7.10;99.90
11055;DHT22;5580;50.106;8.702;2022-12-07T15:23:42;7.10;99.90
11055;DHT22;5580;50.106;8.702;2022-12-07T15:26:09;7.10;99.90
11055;DHT22;5580;50.106;8.702;2022-12-07T15:28:35;7.00;99.90
11055;DHT22;5580;50.106;8.702;2022-12-07T15:31:01;7.10;99.90
11055;DHT22;5580;50.106;8.702;2022-12-07T15:33:26;7.00;99.90
11055;DHT22;5580;50.106;8.702;2022-12-07T15:35:52;7.10;99.90
11055;DHT22;5580;50.106;8.702;2022-12-07T15:38:17;7.00;99.90
11055;DHT22;5580;50.106;8.702;2022-12-07T15:40:46;7.00;99.90
11055;DHT22;5580;50.106;8.702;2022-12-07T15:43:12;7.10;99.90
11055;DHT22;5580;50.106;8.702;2022-12-07T15:45:56;7.00;99.90
11055;DHT22;5580;50.106;8.702;2022-12-07T15:48:22;7.00;99.90
11055;DHT22;5580;50.106;8.702;2022-12-07T15:50:47;7.00;99.90
11055;DHT22;5580;50.106;8.702;2022-12-07T15:53:13;7.00;99.90
11055;DHT22;5580;50.106;8.702;2022-12-07T15:55:39;7.00;99.90
11055;DHT22;5580;50.106;8.702;2022-12-07T15:58:06;7.00;99.90
11055;DHT22;5580;50.106;8.702;2022-12-07T16:00:32;7.00;99.90
11055;DHT22;5580;50.106;8.702;2022-12-07T16:02:57;7.00;99.90
11055;DHT22;5580;50.106;8.702;2022-12-07T16:05:23;7.00;99.90
11055;DHT22;5580;50.106;8.702;2022-12-07T16:07:48;7.00;99.90
11055;DHT22;5580;50.106;8.702;2022-12-07T16:10:14;7.00;99.90
11055;DHT22;5580;50.106;8.702;2022-12-07T16:12:40;7.00;99.90
11055;DHT22;5580;50.106;8.702;2022-12-07T16:15:06;7.00;99.90
11055;DHT22;5580;50.106;8.702;2022-12-07T16:17:31;7.00;99.90
11055;DHT22;5580;50.106;8.702;2022-12-07T16:19:57;6.90;99.90
11055;DHT22;5580;50.106;8.702;2022-12-07T16:22:23;7.00;99.90
11055;DHT22;5580;50.106;8.702;2022-12-07T16:24:49;7.00;99.90
11055;DHT22;5580;50.106;8.702;2022-12-07T16:27:15;7.00;99.90
11055;DHT22;5580;50.106;8.702;2022-12-07T16:29:41;7.10;99.90
11055;DHT22;5580;50.106;8.702;2022-12-07T16:32:07;7.10;99.90
11055;DHT22;5580;50.106;8.702;2022-12-07T16:34:32;7.10;99.90
11055;DHT22;5580;50.106;8.702;2022-12-07T16:36:58;7.10;99.90
11055;DHT22;5580;50.106;8.702;2022-12-07T16:39:23;7.10;99.90
11055;DHT22;5580;50.106;8.702;2022-12-07T16:41:49;7.10;99.90
11055;DHT22;5580;50.106;8.702;2022-12-07T16:44:15;7.10;99.90
11055;DHT22;5580;50.106;8.702;2022-12-07T16:46:41;7.10;99.90
11055;DHT22;5580;50.106;8.702;2022-12-07T16:49:13;7.10;99.90
11055;DHT22;5580;50.106;8.702;2022-12-07T16:51:39;7.10;99.90
11055;DHT22;5580;50.106;8.702;2022-12-07T16:54:05;7.10;99.90
11055;DHT22;5580;50.106;8.702;2022-12-07T16:56:30;7.10;99.90
11055;DHT22;5580;50.106;8.702;2022-12-07T16:58:58;7.10;99.90
11055;DHT22;5580;50.106;8.702;2022-12-07T17:01:24;7.00;99.90
11055;DHT22;5580;50.106;8.702;2022-12-07T17:03:50;7.00;99.90
11055;DHT22;5580;50.106;8.702;2022-12-07T17:06:21;7.00;99.90
11055;DHT22;5580;50.106;8.702;2022-12-07T17:08:47;6.90;99.90
11055;DHT22;5580;50.106;8.702;2022-12-07T17:11:16;6.90;99.90
11055;DHT22;5580;50.106;8.702;2022-12-07T17:13:42;6.90;99.90
11055;DHT22;5580;50.106;8.702;2022-12-07T17:16:26;6.90;99.90
11055;DHT22;5580;50.106;8.702;2022-12-07T17:18:51;6.90;99.90
11055;DHT22;5580;50.106;8.702;2022-12-07T17:21:17;6.90;99.90
11055;DHT22;5580;50.106;8.702;2022-12-07T17:23:43;6.90;99.90
11055;DHT22;5580;50.106;8.702;2022-12-07T17:26:11;7.00;99.90
11055;DHT22;5580;50.106;8.702;2022-12-07T17:28:37;6.90;99.90
11055;DHT22;5580;50.106;8.702;2022-12-07T17:31:09;7.00;99.90
11055;DHT22;5580;50.106;8.702;2022-12-07T17:33:35;7.00;99.90
11055;DHT22;5580;50.106;8.702;2022-12-07T17:36:01;6.90;99.90
11055;DHT22;5580;50.106;8.702;2022-12-07T17:38:34;6.90;99.90
11055;DHT22;5580;50.106;8.702;2022-12-07T17:40:59;7.00;99.90
11055;DHT22;5580;50.106;8.702;2022-12-07T17:43:25;6.90;99.90
11055;DHT22;5580;50.106;8.702;2022-12-07T17:45:50;7.00;99.90
11055;DHT22;5580;50.106;8.702;2022-12-07T17:48:16;6.90;99.90
11055;DHT22;5580;50.106;8.702;2022-12-07T17:50:42;6.90;99.90
11055;DHT22;5580;50.106;8.702;2022-12-07T17:53:26;6.90;99.90
11055;DHT22;5580;50.106;8.702;2022-12-07T17:55:55;6.90;99.90
11055;DHT22;5580;50.106;8.702;2022-12-07T17:58:20;6.90;99.90
11055;DHT22;5580;50.106;8.702;2022-12-07T18:00:46;6.90;99.90
11055;DHT22;5580;50.106;8.702;2022-12-07T18:03:11;6.90;99.90
11055;DHT22;5580;50.106;8.702;2022-12-07T18:05:37;6.80;99.90
11055;DHT22;5580;50.106;8.702;2022-12-07T18:08:07;6.80;99.90
11055;DHT22;5580;50.106;8.702;2022-12-07T18:10:32;6.80;99.90
11055;DHT22;5580;50.106;8.702;2022-12-07T18:12:58;6.80;99.90